Pagina principale
METAR-TAF:

METAR-TAF

Aeroporti :

Qazvin, Iran

latitudine: 36-15N, longitudine: 050-00E, altezza: 1278 m

Osservazione

Il bollettino è stato emesso 38 minuti fa, alle 04:00 UTC
Vento 6 kt da sud-est
Temperature 5°C
Umidità 100%
Pressione 1009 hPa
Visibilità: 3000 m
foschia

METAR: OIIK 300400Z 14006KT 3000 BR NSC 05/05 Q1009

Ora: 09:08 (04:38 UTC)


TAF: mancante

Osservazioni e previsioni meteorologiche di più di 4000 aeroporti (messaggi METAR e TAF).

Le stazioni disponibili sono rappresentate dai dischi gialli e rossi sulla carta.

Puntare il mouse per vedere il nome della stazione.

Clicca sopra per visualizzare le osservazioni e previsioni meteorologiche.

Per cambiare la mappa : fare clic sui pulsanti verdi con una croce nera per ingrandire, il pulsante verde con un trattino per diminuire, o sulla freccia verde per le mappe adiacenti.


METAR-TAF: